Time;durP1;ratioP1;P1;durP2;ratioP2;P2;SDS_P1;SDS_P2;PMS_P1;PMS_P2;Temp;Humidity;BMP_temperature;BMP_pressure;BME280_temperature;BME280_humidity;BME280_pressure;Samples;Min_cycle;Max_cycle;Signal;HPM_P1;HPM_P2
2020/12/10 00:01:24;;;;;;;11.57;7.33;;;;;;;6.44;46.93;100715.92;1753306;80;21629;-68
2020/12/10 00:03:52;;;;;;;11.03;8.53;;;;;;;6.44;46.91;100709.81;1755799;80;21175;-67
2020/12/10 00:06:20;;;;;;;12.40;8.10;;;;;;;6.44;46.90;100708.48;1753440;80;21425;-67
2020/12/10 00:08:47;;;;;;;11.08;7.70;;;;;;;6.35;46.92;100694.19;1753229;80;21183;-67
2020/12/10 00:11:14;;;;;;;10.38;7.75;;;;;;;6.42;46.91;100702.00;1753424;80;21172;-67
2020/12/10 00:13:42;;;;;;;11.68;8.18;;;;;;;6.43;46.88;100700.19;1767732;79;21162;-67
2020/12/10 00:16:11;;;;;;;11.25;8.05;;;;;;;6.42;46.84;100699.85;1767298;79;21105;-68
2020/12/10 00:18:39;;;;;;;11.35;8.30;;;;;;;6.42;46.83;100697.21;1768149;79;21386;-69
2020/12/10 00:21:08;;;;;;;11.30;8.30;;;;;;;6.42;46.83;100687.48;1754017;80;21192;-69
2020/12/10 00:23:35;;;;;;;13.45;8.90;;;;;;;6.40;46.80;100681.48;1766928;79;21233;-69
2020/12/10 00:26:03;;;;;;;11.68;7.90;;;;;;;6.40;46.83;100684.61;1767873;79;21207;-70
2020/12/10 00:28:30;;;;;;;12.45;8.43;;;;;;;6.39;46.81;100688.20;1750877;80;21625;-69
2020/12/10 00:30:58;;;;;;;10.45;7.70;;;;;;;6.39;46.79;100678.95;1753028;80;21384;-68
2020/12/10 00:33:25;;;;;;;11.00;8.45;;;;;;;6.38;46.82;100678.13;1766183;79;21171;-68
2020/12/10 00:35:53;;;;;;;9.15;7.78;;;;;;;6.37;46.78;100679.06;1767188;79;21176;-67
2020/12/10 00:38:20;;;;;;;10.58;7.85;;;;;;;6.37;46.74;100680.39;1763832;80;21157;-67
2020/12/10 00:40:47;;;;;;;11.35;7.72;;;;;;;6.37;46.72;100688.80;1762023;80;21192;-68
2020/12/10 00:43:15;;;;;;;10.95;8.00;;;;;;;6.36;46.73;100682.69;1752503;80;21429;-69
2020/12/10 00:45:42;;;;;;;11.00;8.40;;;;;;;6.36;46.71;100691.09;1768326;79;21199;-67
2020/12/10 00:48:09;;;;;;;11.15;8.00;;;;;;;6.35;46.71;100675.71;1768269;79;21108;-67
2020/12/10 00:50:37;;;;;;;12.55;8.35;;;;;;;6.35;46.68;100669.59;1766005;79;21187;-68
2020/12/10 00:53:05;;;;;;;11.35;8.13;;;;;;;6.34;46.66;100678.00;1766700;79;21175;-68
2020/12/10 00:55:34;;;;;;;11.20;7.80;;;;;;;6.33;46.65;100675.48;1766059;79;21702;-67
2020/12/10 00:58:02;;;;;;;11.88;7.67;;;;;;;6.31;46.65;100667.67;1766519;79;21402;-69
2020/12/10 01:00:29;;;;;;;12.15;7.97;;;;;;;6.30;46.65;100658.92;1769336;79;21131;-68
2020/12/10 01:02:57;;;;;;;11.25;7.72;;;;;;;6.30;46.64;100660.73;1766233;79;21623;-67
2020/12/10 01:05:25;;;;;;;12.82;8.35;;;;;;;6.28;46.67;100656.88;1765866;79;21192;-67
2020/12/10 01:07:52;;;;;;;9.83;7.37;;;;;;;6.29;46.63;100657.72;1765980;79;21385;-67
2020/12/10 01:10:20;;;;;;;11.20;7.60;;;;;;;6.29;46.63;100651.12;1765911;79;21248;-68
2020/12/10 01:12:47;;;;;;;12.95;8.35;;;;;;;6.28;46.59;100655.56;1770219;79;21191;-69
2020/12/10 01:15:14;;;;;;;11.80;8.20;;;;;;;6.29;46.60;100657.72;1766441;79;21195;-68
2020/12/10 01:17:43;;;;;;;10.32;7.05;;;;;;;6.28;46.56;100659.52;1766717;79;21151;-68
2020/12/10 01:20:11;;;;;;;10.70;8.33;;;;;;;6.29;46.56;100673.55;1767001;79;21379;-69
2020/12/10 01:22:38;;;;;;;10.03;7.83;;;;;;;6.29;46.55;100662.99;1766121;79;21170;-69
2020/12/10 01:25:06;;;;;;;10.20;7.70;;;;;;;6.28;46.53;100659.52;1766049;79;21176;-68
2020/12/10 01:27:34;;;;;;;10.55;7.50;;;;;;;6.27;46.52;100659.14;1767252;79;21182;-70
2020/12/10 01:30:02;;;;;;;11.17;7.77;;;;;;;6.28;46.52;100661.33;1768748;79;21164;-69
2020/12/10 01:32:29;;;;;;;9.93;7.37;;;;;;;6.27;46.48;100669.70;1766062;79;22296;-70
2020/12/10 01:34:57;;;;;;;10.68;7.42;;;;;;;6.26;46.48;100648.24;1765717;79;21139;-68
2020/12/10 01:37:25;;;;;;;9.45;7.37;;;;;;;6.28;46.48;100651.61;1766806;79;21169;-68
2020/12/10 01:39:52;;;;;;;11.45;7.42;;;;;;;6.28;46.44;100648.13;1766221;79;21147;-68
2020/12/10 01:42:20;;;;;;;10.20;7.83;;;;;;;6.28;46.43;100646.81;1766192;79;21196;-71
2020/12/10 01:44:47;;;;;;;11.00;7.60;;;;;;;6.26;46.41;100648.24;1766772;79;21382;-67
2020/12/10 01:47:15;;;;;;;10.95;7.92;;;;;;;6.26;46.42;100644.77;1724030;79;21228;-69
2020/12/10 01:49:44;;;;;;;9.98;6.83;;;;;;;6.28;46.37;100645.49;1765436;79;21191;-68
2020/12/10 01:52:11;;;;;;;11.10;7.97;;;;;;;6.26;46.36;100640.33;1769823;79;21573;-67
2020/12/10 01:54:39;;;;;;;11.12;7.80;;;;;;;6.26;46.34;100644.77;1766576;79;21120;-68
2020/12/10 01:57:08;;;;;;;9.70;7.90;;;;;;;6.26;46.36;100651.38;1766417;79;22208;-69
2020/12/10 01:59:35;;;;;;;10.08;7.87;;;;;;;6.25;46.34;100641.77;1766158;79;21170;-68
2020/12/10 02:02:02;;;;;;;10.43;8.05;;;;;;;6.24;46.36;100647.52;1765942;79;21226;-67
2020/12/10 02:04:33;;;;;;;10.13;7.62;;;;;;;6.23;46.34;100649.78;1767458;79;21428;-67
2020/12/10 02:07:01;;;;;;;10.08;7.10;;;;;;;6.23;46.29;100653.75;1766279;79;21148;-67
2020/12/10 02:09:29;;;;;;;8.95;6.50;;;;;;;6.23;46.31;100659.02;1766374;79;21460;-67
2020/12/10 02:11:57;;;;;;;9.28;6.97;;;;;;;6.23;46.29;100651.59;1765021;79;21203;-67
2020/12/10 02:14:37;;;;;;;9.45;6.97;;;;;;;6.23;46.27;100650.27;1763052;80;21146;-68
2020/12/10 02:17:06;;;;;;;10.50;7.37;;;;;;;6.21;46.27;100642.47;1763399;80;21152;-69
2020/12/10 02:19:34;;;;;;;10.67;7.47;;;;;;;6.21;46.24;100645.59;1762943;80;21148;-68
2020/12/10 02:22:01;;;;;;;10.10;7.42;;;;;;;6.20;46.23;100638.62;1766092;80;21209;-68
2020/12/10 02:24:29;;;;;;;10.32;7.40;;;;;;;6.20;46.23;100633.34;1763023;80;21181;-69
2020/12/10 02:26:58;;;;;;;8.80;6.97;;;;;;;6.19;46.24;100631.68;1765493;80;21157;-69
2020/12/10 02:29:25;;;;;;;9.58;7.55;;;;;;;6.19;46.24;100627.72;1767017;80;21188;-68
2020/12/10 02:31:53;;;;;;;8.70;6.80;;;;;;;6.19;46.24;100627.23;1764660;80;21190;-68
2020/12/10 02:34:21;;;;;;;9.83;6.90;;;;;;;6.18;46.20;100624.71;1764247;80;21200;-68
2020/12/10 02:36:48;;;;;;;12.07;7.55;;;;;;;6.17;46.18;100612.49;1754459;80;21172;-68
2020/12/10 02:39:16;;;;;;;10.40;7.90;;;;;;;6.18;46.20;100603.60;1755567;80;21173;-69
2020/12/10 02:41:47;;;;;;;9.10;6.75;;;;;;;6.18;46.17;100614.16;1784898;79;21144;-69
2020/12/10 02:44:16;;;;;;;9.73;7.55;;;;;;;6.17;46.15;100597.98;1772460;80;21163;-69
2020/12/10 02:46:44;;;;;;;9.65;7.05;;;;;;;6.17;46.16;100608.53;1783720;79;21398;-68
2020/12/10 02:49:11;;;;;;;9.40;6.70;;;;;;;6.17;46.12;100596.66;1782147;80;21107;-68
2020/12/10 02:51:43;;;;;;;9.30;6.15;;;;;;;6.16;46.15;100601.11;1781558;80;21143;-68
2020/12/10 02:54:11;;;;;;;10.58;7.00;;;;;;;6.15;46.11;100598.09;1763690;80;21109;-67
2020/12/10 02:56:38;;;;;;;12.90;7.65;;;;;;;6.14;46.12;100597.72;1781241;80;21167;-68
2020/12/10 02:59:06;;;;;;;9.25;6.42;;;;;;;6.14;46.11;100603.48;1782167;80;21355;-68
2020/12/10 03:01:35;;;;;;;9.85;6.65;;;;;;;6.14;46.07;100600.36;1766523;80;21467;-68
2020/12/10 03:04:04;;;;;;;9.08;7.22;;;;;;;6.14;46.06;100588.48;1781021;79;21401;-68
2020/12/10 03:06:31;;;;;;;9.30;6.30;;;;;;;6.13;46.07;100589.95;1768310;80;21123;-69
2020/12/10 03:08:59;;;;;;;7.35;6.03;;;;;;;6.13;46.06;100593.91;1759564;80;21121;-68
2020/12/10 03:11:27;;;;;;;9.55;6.62;;;;;;;6.13;46.06;100598.70;1754576;80;21405;-67
2020/12/10 03:13:55;;;;;;;8.23;6.50;;;;;;;6.12;46.01;100597.48;1784280;79;21167;-70
2020/12/10 03:16:22;;;;;;;9.90;6.97;;;;;;;6.13;46.04;100597.86;1799548;79;21184;-69
2020/12/10 03:18:50;;;;;;;10.18;7.17;;;;;;;6.12;46.04;100588.25;1801571;79;21143;-68
2020/12/10 03:21:18;;;;;;;8.58;6.33;;;;;;;6.12;46.00;100593.53;1752148;80;21225;-68
2020/12/10 03:23:45;;;;;;;9.40;6.62;;;;;;;6.11;45.99;100596.66;1754804;81;21213;-68
2020/12/10 03:26:13;;;;;;;10.40;7.22;;;;;;;6.09;46.01;100600.72;1782059;80;21197;-68
2020/12/10 03:28:40;;;;;;;10.75;7.62;;;;;;;6.10;46.00;100600.23;1784545;79;21155;-68
2020/12/10 03:31:07;;;;;;;10.00;7.00;;;;;;;6.09;45.97;100597.25;1783138;79;21060;-67
2020/12/10 03:33:35;;;;;;;7.85;6.20;;;;;;;6.08;45.95;100592.92;1759864;80;21595;-68
2020/12/10 03:36:03;;;;;;;10.95;6.95;;;;;;;6.07;45.95;100600.49;1768130;80;21337;-69
2020/12/10 03:38:30;;;;;;;10.18;7.15;;;;;;;6.06;46.01;100590.39;1754554;80;21200;-68
2020/12/10 03:40:58;;;;;;;10.58;6.80;;;;;;;6.06;45.99;100593.03;1784389;79;21144;-69
2020/12/10 03:43:25;;;;;;;8.98;6.65;;;;;;;6.05;45.98;100576.86;1785971;79;21126;-69
2020/12/10 03:45:53;;;;;;;7.53;6.08;;;;;;;6.05;45.96;100576.86;1782055;79;21592;-68
2020/12/10 03:48:20;;;;;;;9.35;6.30;;;;;;;6.05;45.95;100575.55;1784472;79;21302;-68
2020/12/10 03:50:48;;;;;;;9.00;7.00;;;;;;;6.05;45.93;100571.59;1785237;79;21380;-68
2020/12/10 03:53:15;;;;;;;9.80;6.92;;;;;;;6.04;45.90;100561.14;1782247;79;21585;-68
2020/12/10 03:55:42;;;;;;;9.48;7.08;;;;;;;6.04;45.91;100561.14;1787263;80;21636;-69
2020/12/10 03:58:10;;;;;;;10.40;6.90;;;;;;;6.03;45.94;100559.48;1783737;80;21392;-68
2020/12/10 04:00:37;;;;;;;8.28;6.97;;;;;;;6.03;45.94;100558.17;1787804;79;21347;-68
2020/12/10 04:03:05;;;;;;;8.83;6.87;;;;;;;6.03;45.90;100551.57;1782312;80;21152;-67
2020/12/10 04:05:32;;;;;;;9.13;7.03;;;;;;;6.02;45.92;100554.66;1782396;79;21129;-67
2020/12/10 04:08:00;;;;;;;9.50;6.97;;;;;;;6.01;45.90;100538.98;1782369;80;21443;-69
2020/12/10 04:10:27;;;;;;;9.75;6.58;;;;;;;6.00;45.89;100542.08;1784847;79;21141;-67
2020/12/10 04:12:54;;;;;;;8.68;6.78;;;;;;;5.99;45.91;100533.82;1798303;79;21385;-67
2020/12/10 04:15:22;;;;;;;9.58;7.17;;;;;;;6.01;45.90;100540.30;1791264;79;21153;-67
2020/12/10 04:17:50;;;;;;;8.95;6.70;;;;;;;5.99;45.90;100532.95;1782396;79;21096;-66
2020/12/10 04:20:18;;;;;;;10.03;7.80;;;;;;;5.99;45.91;100527.22;1782682;80;21145;-68
2020/12/10 04:22:46;;;;;;;8.53;6.70;;;;;;;6.00;45.88;100532.84;1790136;79;21171;-67
2020/12/10 04:25:13;;;;;;;9.35;7.17;;;;;;;5.95;45.88;100524.47;1784546;79;21345;-70
2020/12/10 04:27:40;;;;;;;9.70;7.22;;;;;;;6.00;45.83;100530.70;1782229;80;21181;-68
2020/12/10 04:30:08;;;;;;;9.48;7.70;;;;;;;5.99;45.84;100539.55;1782216;79;21169;-67
2020/12/10 04:32:36;;;;;;;9.78;7.58;;;;;;;5.99;45.89;100529.00;1785690;79;21183;-67
2020/12/10 04:35:04;;;;;;;10.78;8.00;;;;;;;5.98;45.83;100541.36;1750583;80;21164;-66
2020/12/10 04:37:31;;;;;;;9.20;7.20;;;;;;;5.97;45.80;100530.46;1754687;80;21380;-66
2020/12/10 04:39:59;;;;;;;8.65;6.55;;;;;;;5.95;45.84;100520.52;1788182;79;21193;-67
2020/12/10 04:42:26;;;;;;;10.50;7.53;;;;;;;5.96;45.83;100531.41;1782392;80;21156;-65
2020/12/10 04:44:53;;;;;;;7.95;6.55;;;;;;;5.94;45.81;100528.02;1782328;79;22103;-67
2020/12/10 04:47:21;;;;;;;9.63;7.40;;;;;;;5.94;45.82;100535.94;1782147;80;21589;-67
2020/12/10 04:49:52;;;;;;;10.45;7.12;;;;;;;5.94;45.78;100535.94;1802102;79;22285;-66
2020/12/10 04:52:20;;;;;;;9.85;6.67;;;;;;;5.94;45.83;100535.09;1783599;80;21216;-66
2020/12/10 04:54:49;;;;;;;9.98;7.50;;;;;;;5.94;45.83;100539.06;1766801;80;21207;-67
2020/12/10 04:57:17;;;;;;;10.38;7.87;;;;;;;5.93;45.84;100533.41;1783423;80;21152;-66
2020/12/10 04:59:45;;;;;;;8.18;6.95;;;;;;;5.93;45.82;100531.63;1786934;79;21116;-65
2020/12/10 05:02:12;;;;;;;9.20;6.35;;;;;;;5.93;45.80;100522.41;1790847;79;21374;-65
2020/12/10 05:04:40;;;;;;;9.28;7.15;;;;;;;5.94;45.80;100517.47;1785360;80;21143;-66
2020/12/10 05:07:08;;;;;;;9.28;6.97;;;;;;;5.94;45.77;100512.69;1783905;79;21172;-65
2020/12/10 05:09:36;;;;;;;9.65;7.37;;;;;;;5.93;45.79;100521.08;1784897;79;22220;-65
2020/12/10 05:12:18;;;;;;;11.63;6.95;;;;;;;5.93;45.76;100518.45;1782923;79;21298;-65
2020/12/10 05:14:46;;;;;;;9.78;6.97;;;;;;;5.93;45.79;100518.90;1790563;79;21435;-65
2020/12/10 05:17:15;;;;;;;9.45;6.95;;;;;;;5.92;45.74;100519.39;1787715;79;21171;-65
2020/12/10 05:19:43;;;;;;;10.58;7.28;;;;;;;5.93;45.76;100514.95;1775963;80;21194;-65
2020/12/10 05:22:11;;;;;;;9.48;7.03;;;;;;;5.93;45.73;100520.22;1763223;80;21162;-65
2020/12/10 05:24:38;;;;;;;9.43;7.22;;;;;;;5.92;45.74;100522.02;1771157;80;21307;-65
2020/12/10 05:27:24;;;;;;;10.20;6.85;;;;;;;5.92;45.72;100528.63;1793572;79;21434;-65
2020/12/10 05:29:52;;;;;;;10.93;8.08;;;;;;;5.93;45.70;100530.77;1779117;80;21147;-66
2020/12/10 05:32:41;;;;;;;9.28;6.90;;;;;;;5.92;45.75;100533.89;1780008;79;22140;-65
2020/12/10 05:35:24;;;;;;;10.35;7.28;;;;;;;5.93;45.74;100538.69;1761238;80;21164;-66
2020/12/10 05:37:53;;;;;;;10.93;7.30;;;;;;;5.92;45.71;100541.80;1798180;79;21151;-66
2020/12/10 05:40:20;;;;;;;11.75;7.28;;;;;;;5.90;45.73;100539.28;1799491;79;22612;-65
2020/12/10 05:42:50;;;;;;;11.08;7.00;;;;;;;5.91;45.75;100545.42;1786830;79;21557;-65
2020/12/10 05:45:22;;;;;;;9.83;6.97;;;;;;;5.90;45.75;100543.23;1785470;79;21130;-66
2020/12/10 05:47:58;;;;;;;9.73;7.33;;;;;;;5.92;45.74;100548.40;1787701;79;21117;-66
2020/12/10 05:50:31;;;;;;;10.23;7.55;;;;;;;5.91;45.75;100549.37;1785359;79;21664;-66
2020/12/10 05:53:09;;;;;;;10.05;7.33;;;;;;;5.92;45.74;100545.77;1785218;80;22141;-68
2020/12/10 05:55:39;;;;;;;9.60;7.25;;;;;;;5.92;45.69;100541.80;1786284;79;21185;-69
2020/12/10 05:58:07;;;;;;;10.63;7.85;;;;;;;5.92;45.72;100544.44;1785905;79;21179;-67
2020/12/10 06:00:35;;;;;;;8.58;6.40;;;;;;;5.92;45.72;100545.77;1785757;79;21172;-69
2020/12/10 06:03:03;;;;;;;10.13;7.35;;;;;;;5.92;45.71;100541.80;1790356;79;21203;-69
2020/12/10 06:05:31;;;;;;;11.03;7.50;;;;;;;5.91;45.69;100543.61;1785998;79;21388;-67
2020/12/10 06:08:04;;;;;;;9.30;6.67;;;;;;;5.94;45.69;100536.42;1786212;79;21096;-68
2020/12/10 06:10:40;;;;;;;10.43;6.75;;;;;;;5.93;45.70;100542.18;1759508;80;21121;-68
2020/12/10 06:13:11;;;;;;;9.68;7.65;;;;;;;5.93;45.70;100534.27;1755308;80;21148;-68
2020/12/10 06:15:39;;;;;;;11.22;7.20;;;;;;;5.94;45.72;100541.70;1759338;80;21123;-68
2020/12/10 06:18:13;;;;;;;9.10;6.65;;;;;;;5.94;45.72;100537.73;1752890;80;21827;-67
2020/12/10 06:20:46;;;;;;;10.28;7.65;;;;;;;5.93;45.71;100535.59;1752983;80;21151;-69
2020/12/10 06:23:31;;;;;;;9.30;7.35;;;;;;;5.94;45.71;100533.78;1752782;80;21180;-68
2020/12/10 06:26:02;;;;;;;9.38;6.92;;;;;;;5.94;45.71;100531.97;1752895;80;21183;-68
2020/12/10 06:28:30;;;;;;;8.58;6.85;;;;;;;5.94;45.74;100525.38;1767327;80;21155;-67
2020/12/10 06:31:10;;;;;;;11.00;7.95;;;;;;;5.95;45.71;100520.52;1758010;80;21205;-67
2020/12/10 06:33:42;;;;;;;10.55;8.00;;;;;;;5.96;45.72;100515.58;1753597;80;21130;-66
2020/12/10 06:36:26;;;;;;;9.58;7.42;;;;;;;5.97;45.69;100519.91;1752457;80;21143;-67
2020/12/10 06:38:56;;;;;;;10.13;7.12;;;;;;;5.98;45.70;100522.89;1752811;80;21221;-67
2020/12/10 06:41:24;;;;;;;9.40;7.40;;;;;;;5.99;45.66;100517.12;1752621;80;21164;-67
2020/12/10 06:43:52;;;;;;;9.80;7.75;;;;;;;6.00;45.68;100516.19;1753480;80;21435;-67
2020/12/10 06:46:20;;;;;;;11.50;7.53;;;;;;;6.00;45.66;100512.23;1783983;79;21166;-67
2020/12/10 06:48:50;;;;;;;10.32;7.65;;;;;;;6.02;45.67;100517.73;1756814;80;21148;-67
2020/12/10 06:51:21;;;;;;;10.90;8.15;;;;;;;6.03;45.63;100510.69;1794924;79;21140;-68
2020/12/10 06:54:05;;;;;;;9.10;7.20;;;;;;;6.03;45.64;100501.45;1770571;80;21196;-68
2020/12/10 06:56:33;;;;;;;11.85;7.87;;;;;;;6.02;45.61;100504.55;1759592;80;21421;-66
2020/12/10 06:59:03;;;;;;;10.23;7.92;;;;;;;6.03;45.64;100499.64;1747042;80;21169;-66
2020/12/10 07:01:37;;;;;;;11.90;7.80;;;;;;;6.02;45.63;100501.91;1784385;79;21143;-67
2020/12/10 07:06:46;;;;;;;10.82;7.75;;;;;;;6.03;45.61;100500.97;1786310;79;21171;-68
2020/12/10 07:09:14;;;;;;;11.08;7.70;;;;;;;6.04;45.63;100499.98;1782469;79;22273;-65
2020/12/10 07:11:45;;;;;;;12.63;8.33;;;;;;;6.04;45.63;100497.35;1792413;79;21578;-66
2020/12/10 07:14:26;;;;;;;12.93;8.78;;;;;;;6.05;45.59;100508.28;1790024;79;21152;-65
2020/12/10 07:16:54;;;;;;;12.82;8.08;;;;;;;6.05;45.59;100508.28;1791622;79;21591;-67
2020/12/10 07:19:23;;;;;;;10.90;7.42;;;;;;;6.05;45.61;100499.05;1782891;79;21172;-65
2020/12/10 07:21:50;;;;;;;10.38;8.03;;;;;;;6.06;45.63;100504.66;1784249;80;21362;-67
2020/12/10 07:24:17;;;;;;;11.48;8.68;;;;;;;6.07;45.62;100508.99;1785780;79;21608;-66
2020/12/10 07:26:45;;;;;;;12.45;8.58;;;;;;;6.08;45.60;100501.91;1786191;79;21204;-66
2020/12/10 07:29:12;;;;;;;10.63;8.45;;;;;;;6.09;45.58;100501.80;1792941;79;21159;-65
2020/12/10 07:31:42;;;;;;;10.55;7.50;;;;;;;6.10;45.61;100498.22;1782199;80;21407;-65
2020/12/10 07:34:11;;;;;;;10.85;7.55;;;;;;;6.07;45.61;100502.40;1783484;79;21336;-64
2020/12/10 07:36:50;;;;;;;11.40;8.10;;;;;;;6.13;45.58;100508.16;1782043;80;21196;-65
2020/12/10 07:39:30;;;;;;;10.08;7.83;;;;;;;6.14;45.52;100520.38;1781496;79;21201;-63
2020/12/10 07:41:57;;;;;;;11.28;8.03;;;;;;;6.15;45.56;100500.48;1796512;79;21182;-65
2020/12/10 07:44:29;;;;;;;10.65;8.38;;;;;;;6.16;45.53;100499.98;1784418;79;21199;-65
2020/12/10 07:46:56;;;;;;;11.73;8.13;;;;;;;6.17;45.54;100496.41;1789956;79;21198;-64
2020/12/10 07:49:32;;;;;;;11.40;7.97;;;;;;;6.18;45.55;100502.02;1786151;79;21177;-65
2020/12/10 07:52:09;;;;;;;10.23;7.62;;;;;;;6.20;45.52;100492.19;1763233;80;21167;-64
2020/12/10 07:54:49;;;;;;;12.82;8.50;;;;;;;6.22;45.46;100499.04;1755593;80;21124;-66
2020/12/10 07:57:32;;;;;;;11.10;8.28;;;;;;;6.25;45.49;100496.62;1779008;79;21163;-66
2020/12/10 08:00:08;;;;;;;11.68;7.65;;;;;;;6.25;45.44;100501.42;1760068;79;22214;-65
2020/12/10 08:03:20;;;;;;;10.80;7.62;;;;;;;6.28;45.41;100499.87;1761578;79;21180;-67
2020/12/10 08:06:08;;;;;;;10.72;8.08;;;;;;;6.28;45.40;100500.36;1750581;79;21650;-68
2020/12/10 08:08:42;;;;;;;11.63;8.18;;;;;;;6.29;45.39;100498.06;1771996;80;21147;-66
2020/12/10 08:11:18;;;;;;;10.55;8.03;;;;;;;6.28;45.39;100491.95;1758459;80;21202;-65
2020/12/10 08:14:06;;;;;;;10.65;7.55;;;;;;;6.30;45.39;100479.96;1749421;80;22249;-67
2020/12/10 08:16:42;;;;;;;12.43;8.90;;;;;;;6.32;45.33;100463.98;1746057;81;21123;-66
2020/12/10 08:19:15;;;;;;;9.98;7.80;;;;;;;6.32;45.31;100466.62;1764400;81;21158;-66
2020/12/10 08:21:44;;;;;;;11.65;7.70;;;;;;;6.33;45.34;100461.22;1744323;80;21382;-66
2020/12/10 08:24:12;;;;;;;10.43;7.33;;;;;;;6.35;45.34;100466.38;1763758;81;21686;-65
2020/12/10 08:26:41;;;;;;;11.20;8.40;;;;;;;6.35;45.32;100464.58;1755303;80;21454;-66
2020/12/10 08:29:16;;;;;;;10.88;8.05;;;;;;;6.38;45.27;100451.64;1757370;80;21171;-65
2020/12/10 08:31:43;;;;;;;12.10;7.92;;;;;;;6.40;45.26;100445.75;1765564;81;21338;-66
2020/12/10 08:34:17;;;;;;;10.28;8.03;;;;;;;6.41;45.22;100440.81;1750293;81;21171;-66
2020/12/10 08:36:45;;;;;;;10.93;7.50;;;;;;;6.42;45.18;100437.23;1752796;81;21214;-65
2020/12/10 08:39:12;;;;;;;11.55;8.20;;;;;;;6.43;45.17;100435.79;1757134;81;21516;-65
2020/12/10 08:41:40;;;;;;;10.28;7.95;;;;;;;6.44;45.18;100437.45;1764766;80;21226;-66
2020/12/10 08:44:08;;;;;;;12.03;8.73;;;;;;;6.46;45.14;100446.08;1767600;80;21206;-65
2020/12/10 08:46:36;;;;;;;11.73;8.78;;;;;;;6.47;45.15;100437.67;1743801;81;21207;-66
2020/12/10 08:49:20;;;;;;;11.88;8.30;;;;;;;6.49;45.14;100434.45;1743435;81;21215;-68
2020/12/10 08:51:50;;;;;;;11.48;8.58;;;;;;;6.51;45.09;100440.45;1742238;81;21414;-66
2020/12/10 08:54:17;;;;;;;11.08;8.75;;;;;;;6.51;45.09;100435.17;1750025;81;21216;-65
2020/12/10 08:56:45;;;;;;;10.93;8.50;;;;;;;6.52;45.07;100436.00;1760931;81;21186;-65
2020/12/10 08:59:13;;;;;;;12.05;8.08;;;;;;;6.53;45.04;100432.38;1772658;80;21183;-66
2020/12/10 09:01:53;;;;;;;13.03;8.90;;;;;;;6.53;45.05;100438.98;1767313;80;21442;-66
2020/12/10 09:04:20;;;;;;;12.10;8.13;;;;;;;6.54;45.03;100441.50;1734617;81;21417;-66
2020/12/10 09:06:49;;;;;;;11.68;8.38;;;;;;;6.55;45.05;100433.09;1752284;79;21199;-65
2020/12/10 09:09:18;;;;;;;10.93;8.30;;;;;;;6.56;45.00;100432.14;1752147;81;21483;-65
2020/12/10 09:11:46;;;;;;;9.63;7.75;;;;;;;6.56;44.99;100431.65;1741702;81;21187;-66
2020/12/10 09:14:13;;;;;;;11.73;7.78;;;;;;;6.58;45.01;100427.57;1755429;81;21210;-66
2020/12/10 09:16:41;;;;;;;11.48;8.10;;;;;;;6.58;44.97;100430.21;1749063;81;22251;-64
2020/12/10 09:19:09;;;;;;;11.20;7.85;;;;;;;6.58;44.95;100427.57;1748042;81;21127;-65
2020/12/10 09:21:36;;;;;;;10.72;7.85;;;;;;;6.59;44.92;100418.70;1740521;81;21148;-66
2020/12/10 09:24:03;;;;;;;11.12;9.15;;;;;;;6.60;44.95;100415.08;1737992;80;21225;-65
2020/12/10 09:26:31;;;;;;;11.78;8.78;;;;;;;6.61;44.94;100412.81;1740734;81;21610;-64
2020/12/10 09:29:01;;;;;;;11.20;8.00;;;;;;;6.61;44.92;100410.17;1781541;80;21393;-66
2020/12/10 09:31:28;;;;;;;10.38;8.23;;;;;;;6.61;44.94;100406.21;1772759;80;21142;-66
2020/12/10 09:33:56;;;;;;;11.57;8.33;;;;;;;6.62;44.93;100414.47;1767904;80;21197;-66
2020/12/10 09:36:25;;;;;;;11.70;8.43;;;;;;;6.61;44.94;100409.68;1781787;80;21176;-65
2020/12/10 09:38:55;;;;;;;13.30;8.38;;;;;;;6.63;44.90;100414.84;1777905;80;21184;-66
2020/12/10 09:41:23;;;;;;;12.20;8.55;;;;;;;6.62;44.90;100415.30;1764123;80;22181;-63
2020/12/10 09:43:51;;;;;;;11.50;8.10;;;;;;;6.65;44.96;100414.23;1738123;81;21175;-65
2020/12/10 09:46:18;;;;;;;13.38;9.05;;;;;;;6.66;44.89;100413.25;1779666;80;21500;-64
2020/12/10 09:48:46;;;;;;;11.40;8.75;;;;;;;6.67;44.87;100413.63;1770675;80;21159;-66
2020/12/10 09:51:13;;;;;;;13.45;8.88;;;;;;;6.67;44.90;100412.30;1768821;80;21191;-63
2020/12/10 09:53:45;;;;;;;11.57;8.75;;;;;;;6.68;44.89;100429.80;1738341;80;21614;-65
2020/12/10 09:56:35;;;;;;;12.65;8.58;;;;;;;6.69;44.82;100427.53;1762505;80;21131;-61
2020/12/10 09:58:39;;;;;;;12.55;7.97;;;;;;;6.69;44.88;100417.80;1739890;81;22032;-64
2020/12/10 10:01:10;;;;;;;11.88;8.53;;;;;;;6.71;44.85;100414.21;1766662;80;21170;-61
2020/12/10 10:03:38;;;;;;;12.23;9.00;;;;;;;6.71;44.84;100406.29;1767303;79;21128;-62
2020/12/10 10:06:10;;;;;;;10.53;8.00;;;;;;;6.71;44.83;100415.04;1759092;79;21466;-62
2020/12/10 10:08:38;;;;;;;13.40;8.80;;;;;;;6.71;44.83;100400.52;1769110;80;21596;-63
2020/12/10 10:11:05;;;;;;;13.13;8.80;;;;;;;6.72;44.81;100404.81;1773194;80;21171;-62
2020/12/10 10:13:33;;;;;;;11.03;7.92;;;;;;;6.74;44.85;100404.70;1780136;80;21156;-64
2020/12/10 10:16:02;;;;;;;11.22;8.08;;;;;;;6.73;44.84;100400.39;1738933;81;21352;-63
2020/12/10 10:18:29;;;;;;;12.75;9.00;;;;;;;6.74;44.84;100395.45;1756389;81;21385;-64
2020/12/10 10:20:57;;;;;;;10.45;8.18;;;;;;;6.74;44.83;100393.67;1757383;81;21154;-64
2020/12/10 10:23:26;;;;;;;11.68;8.50;;;;;;;6.74;44.84;100396.31;1754977;81;21177;-64
2020/12/10 10:25:54;;;;;;;10.88;8.25;;;;;;;6.75;44.77;100385.27;1752671;79;21447;-65
2020/12/10 10:28:21;;;;;;;12.05;8.43;;;;;;;6.75;44.79;100383.94;1748157;81;21123;-65
2020/12/10 10:30:49;;;;;;;10.20;7.85;;;;;;;6.74;44.84;100389.71;1750553;81;22286;-64
2020/12/10 10:33:22;;;;;;;11.95;8.70;;;;;;;6.74;44.84;100388.86;1757850;81;21135;-64
2020/12/10 10:35:47;;;;;;;12.78;8.70;;;;;;;6.74;44.85;100375.19;1769094;80;21119;-65
2020/12/10 10:38:14;;;;;;;11.97;8.70;;;;;;;6.75;44.86;100371.56;1767916;80;21214;-63
2020/12/10 10:40:41;;;;;;;12.28;8.53;;;;;;;6.74;44.85;100379.15;1778909;79;21198;-64
2020/12/10 10:43:09;;;;;;;11.33;8.70;;;;;;;6.74;44.89;100380.47;1732126;81;21472;-65
2020/12/10 10:45:37;;;;;;;11.90;8.35;;;;;;;6.74;44.89;100383.58;1742864;81;21191;-64
2020/12/10 10:48:04;;;;;;;10.82;8.08;;;;;;;6.74;44.91;100380.47;1749999;80;21162;-63
2020/12/10 10:50:32;;;;;;;12.00;9.38;;;;;;;6.75;44.89;100378.17;1779197;80;21473;-64
2020/12/10 10:52:59;;;;;;;13.45;8.73;;;;;;;6.74;44.90;100371.23;1738313;81;21176;-64
2020/12/10 10:55:26;;;;;;;13.38;9.30;;;;;;;6.75;44.89;100375.53;1781141;79;21250;-63
2020/12/10 10:57:54;;;;;;;11.78;8.18;;;;;;;6.75;44.86;100369.42;1770216;79;21147;-66
2020/12/10 11:00:21;;;;;;;13.18;8.88;;;;;;;6.75;44.86;100378.66;1771609;79;21155;-62
2020/12/10 11:02:49;;;;;;;13.32;8.78;;;;;;;6.74;44.87;100382.25;1767236;80;21158;-64
2020/12/10 11:05:16;;;;;;;11.80;8.08;;;;;;;6.73;44.90;100384.06;1760309;79;21135;-63
2020/12/10 11:07:44;;;;;;;15.15;8.58;;;;;;;6.73;44.91;100376.14;1780334;80;21187;-64
2020/12/10 11:10:12;;;;;;;13.50;9.18;;;;;;;6.74;44.93;100373.87;1746181;81;21182;-65
2020/12/10 11:12:41;;;;;;;10.53;8.35;;;;;;;6.73;44.95;100376.14;1723325;82;21155;-65
2020/12/10 11:15:08;;;;;;;14.65;9.00;;;;;;;6.74;44.94;100379.61;1741928;81;21171;-64
2020/12/10 11:17:36;;;;;;;14.03;9.68;;;;;;;6.74;44.98;100383.11;1752653;80;21139;-64
2020/12/10 11:20:05;;;;;;;13.50;9.53;;;;;;;6.73;44.98;100381.42;1753392;81;21209;-67
2020/12/10 11:22:34;;;;;;;12.88;8.90;;;;;;;6.73;44.98;100378.78;1751533;81;21158;-64
2020/12/10 11:25:03;;;;;;;12.05;9.05;;;;;;;6.73;45.00;100382.74;1755057;80;21174;-65
2020/12/10 11:30:06;;;;;;;12.70;9.40;;;;;;;6.76;45.06;100370.62;1749978;79;28104;-65
2020/12/10 11:32:34;;;;;;;12.53;8.38;;;;;;;6.68;45.16;100374.35;1719852;82;21132;-65
2020/12/10 11:35:01;;;;;;;11.63;8.50;;;;;;;6.70;45.11;100376.38;1715230;81;21217;-64
2020/12/10 11:37:29;;;;;;;14.05;9.28;;;;;;;6.72;45.16;100361.25;1718082;81;21235;-63
2020/12/10 11:39:57;;;;;;;13.28;9.38;;;;;;;6.73;45.11;100362.94;1720784;81;21116;-63
2020/12/10 11:45:05;;;;;;;13.00;9.00;;;;;;;6.77;45.14;100352.47;1797094;79;27301;-66